sensor_id;sensor_type;location;lat;lon;timestamp;P1;durP1;ratioP1;P2;durP2;ratioP2
47153;SDS011;32907;41.412;2.164;2022-09-03T00:00:53;7.22;;;1.98;;
47153;SDS011;32907;41.412;2.164;2022-09-03T00:06:14;4.18;;;1.75;;
47153;SDS011;32907;41.412;2.164;2022-09-03T00:08:47;4.28;;;1.85;;
47153;SDS011;32907;41.412;2.164;2022-09-03T00:11:27;4.15;;;2.10;;
47153;SDS011;32907;41.412;2.164;2022-09-03T00:14:04;7.00;;;2.42;;
47153;SDS011;32907;41.412;2.164;2022-09-03T00:16:55;5.30;;;2.20;;
47153;SDS011;32907;41.412;2.164;2022-09-03T00:19:29;5.65;;;2.30;;
47153;SDS011;32907;41.412;2.164;2022-09-03T00:22:20;8.55;;;2.45;;
47153;SDS011;32907;41.412;2.164;2022-09-03T00:24:54;5.45;;;2.40;;
47153;SDS011;32907;41.412;2.164;2022-09-03T00:27:26;5.82;;;2.17;;
47153;SDS011;32907;41.412;2.164;2022-09-03T00:32:38;5.47;;;2.53;;
47153;SDS011;32907;41.412;2.164;2022-09-03T00:35:10;5.53;;;2.58;;
47153;SDS011;32907;41.412;2.164;2022-09-03T00:37:44;5.63;;;2.70;;
47153;SDS011;32907;41.412;2.164;2022-09-03T00:41:02;4.40;;;2.35;;
47153;SDS011;32907;41.412;2.164;2022-09-03T00:43:07;5.97;;;2.92;;
47153;SDS011;32907;41.412;2.164;2022-09-03T00:48:39;5.45;;;3.05;;
47153;SDS011;32907;41.412;2.164;2022-09-03T00:54:42;6.55;;;2.83;;
47153;SDS011;32907;41.412;2.164;2022-09-03T01:00:23;5.40;;;3.28;;
47153;SDS011;32907;41.412;2.164;2022-09-03T01:10:34;4.85;;;2.58;;
47153;SDS011;32907;41.412;2.164;2022-09-03T01:13:16;8.23;;;3.05;;
47153;SDS011;32907;41.412;2.164;2022-09-03T01:16:09;4.63;;;2.67;;
47153;SDS011;32907;41.412;2.164;2022-09-03T01:19:17;4.40;;;2.70;;
47153;SDS011;32907;41.412;2.164;2022-09-03T01:25:30;5.57;;;2.97;;
47153;SDS011;32907;41.412;2.164;2022-09-03T01:31:00;5.90;;;2.72;;
47153;SDS011;32907;41.412;2.164;2022-09-03T01:33:43;5.35;;;3.13;;
47153;SDS011;32907;41.412;2.164;2022-09-03T01:39:20;5.40;;;2.70;;
47153;SDS011;32907;41.412;2.164;2022-09-03T01:42:18;6.93;;;2.50;;
47153;SDS011;32907;41.412;2.164;2022-09-03T01:56:21;6.35;;;3.03;;
47153;SDS011;32907;41.412;2.164;2022-09-03T02:02:23;4.30;;;2.55;;
47153;SDS011;32907;41.412;2.164;2022-09-03T02:04:57;5.28;;;2.70;;
47153;SDS011;32907;41.412;2.164;2022-09-03T02:07:32;5.72;;;2.63;;
47153;SDS011;32907;41.412;2.164;2022-09-03T02:10:03;6.75;;;3.15;;
47153;SDS011;32907;41.412;2.164;2022-09-03T02:12:34;7.63;;;2.60;;
47153;SDS011;32907;41.412;2.164;2022-09-03T02:15:05;4.25;;;2.30;;
47153;SDS011;32907;41.412;2.164;2022-09-03T02:17:45;5.47;;;2.67;;
47153;SDS011;32907;41.412;2.164;2022-09-03T02:20:21;5.15;;;2.30;;
47153;SDS011;32907;41.412;2.164;2022-09-03T02:22:53;7.15;;;3.10;;
47153;SDS011;32907;41.412;2.164;2022-09-03T02:25:23;4.88;;;2.70;;
47153;SDS011;32907;41.412;2.164;2022-09-03T02:27:58;6.88;;;3.00;;
47153;SDS011;32907;41.412;2.164;2022-09-03T02:30:27;5.97;;;2.92;;
47153;SDS011;32907;41.412;2.164;2022-09-03T02:32:54;5.75;;;2.97;;
47153;SDS011;32907;41.412;2.164;2022-09-03T02:35:22;5.47;;;2.80;;
47153;SDS011;32907;41.412;2.164;2022-09-03T02:37:50;7.05;;;3.00;;
47153;SDS011;32907;41.412;2.164;2022-09-03T02:40:17;8.32;;;3.22;;
47153;SDS011;32907;41.412;2.164;2022-09-03T02:42:45;5.97;;;3.10;;
47153;SDS011;32907;41.412;2.164;2022-09-03T02:45:27;6.25;;;2.90;;
47153;SDS011;32907;41.412;2.164;2022-09-03T02:47:56;6.57;;;3.05;;
47153;SDS011;32907;41.412;2.164;2022-09-03T02:50:26;6.03;;;3.20;;
47153;SDS011;32907;41.412;2.164;2022-09-03T02:52:53;8.07;;;3.30;;
47153;SDS011;32907;41.412;2.164;2022-09-03T02:55:22;6.80;;;3.20;;
47153;SDS011;32907;41.412;2.164;2022-09-03T02:57:49;6.57;;;3.35;;
47153;SDS011;32907;41.412;2.164;2022-09-03T03:00:17;5.93;;;2.67;;
47153;SDS011;32907;41.412;2.164;2022-09-03T03:02:45;5.70;;;2.90;;
47153;SDS011;32907;41.412;2.164;2022-09-03T03:05:14;6.38;;;3.13;;
47153;SDS011;32907;41.412;2.164;2022-09-03T03:10:18;6.70;;;2.92;;
47153;SDS011;32907;41.412;2.164;2022-09-03T03:12:45;6.93;;;2.80;;
47153;SDS011;32907;41.412;2.164;2022-09-03T03:15:13;6.22;;;3.00;;
47153;SDS011;32907;41.412;2.164;2022-09-03T03:17:41;5.93;;;2.90;;
47153;SDS011;32907;41.412;2.164;2022-09-03T03:20:09;3.88;;;2.75;;
47153;SDS011;32907;41.412;2.164;2022-09-03T03:22:37;9.10;;;3.20;;
47153;SDS011;32907;41.412;2.164;2022-09-03T03:25:05;5.18;;;3.00;;
47153;SDS011;32907;41.412;2.164;2022-09-03T03:27:33;5.28;;;3.08;;
47153;SDS011;32907;41.412;2.164;2022-09-03T03:30:03;6.43;;;3.15;;
47153;SDS011;32907;41.412;2.164;2022-09-03T03:32:31;8.20;;;3.30;;
47153;SDS011;32907;41.412;2.164;2022-09-03T03:34:59;5.30;;;3.03;;
47153;SDS011;32907;41.412;2.164;2022-09-03T03:37:27;7.50;;;3.33;;
47153;SDS011;32907;41.412;2.164;2022-09-03T03:39:55;8.30;;;3.50;;
47153;SDS011;32907;41.412;2.164;2022-09-03T03:42:23;6.25;;;3.03;;
47153;SDS011;32907;41.412;2.164;2022-09-03T03:44:51;6.35;;;3.22;;
47153;SDS011;32907;41.412;2.164;2022-09-03T03:47:19;6.82;;;3.58;;
47153;SDS011;32907;41.412;2.164;2022-09-03T03:49:47;9.82;;;4.03;;
47153;SDS011;32907;41.412;2.164;2022-09-03T03:52:15;9.57;;;4.47;;
47153;SDS011;32907;41.412;2.164;2022-09-03T03:54:42;6.25;;;4.45;;
47153;SDS011;32907;41.412;2.164;2022-09-03T03:57:11;9.40;;;4.80;;
47153;SDS011;32907;41.412;2.164;2022-09-03T03:59:39;9.65;;;4.28;;
47153;SDS011;32907;41.412;2.164;2022-09-03T04:02:07;5.90;;;3.50;;
47153;SDS011;32907;41.412;2.164;2022-09-03T04:04:34;9.48;;;3.90;;
47153;SDS011;32907;41.412;2.164;2022-09-03T04:07:02;5.95;;;3.03;;
47153;SDS011;32907;41.412;2.164;2022-09-03T04:09:30;4.90;;;3.00;;
47153;SDS011;32907;41.412;2.164;2022-09-03T04:11:58;6.68;;;3.47;;
47153;SDS011;32907;41.412;2.164;2022-09-03T04:14:26;9.40;;;3.15;;
47153;SDS011;32907;41.412;2.164;2022-09-03T04:16:54;8.50;;;3.20;;
47153;SDS011;32907;41.412;2.164;2022-09-03T04:19:23;4.93;;;3.05;;
47153;SDS011;32907;41.412;2.164;2022-09-03T04:21:51;5.32;;;3.10;;
47153;SDS011;32907;41.412;2.164;2022-09-03T04:24:19;7.45;;;3.25;;
47153;SDS011;32907;41.412;2.164;2022-09-03T04:26:47;6.13;;;2.85;;
47153;SDS011;32907;41.412;2.164;2022-09-03T04:29:16;4.85;;;3.15;;
47153;SDS011;32907;41.412;2.164;2022-09-03T04:31:44;15.00;;;3.63;;
47153;SDS011;32907;41.412;2.164;2022-09-03T04:34:32;5.05;;;3.17;;
47153;SDS011;32907;41.412;2.164;2022-09-03T04:36:59;5.20;;;3.25;;
47153;SDS011;32907;41.412;2.164;2022-09-03T04:39:27;6.78;;;2.88;;
47153;SDS011;32907;41.412;2.164;2022-09-03T04:41:55;5.30;;;2.92;;
47153;SDS011;32907;41.412;2.164;2022-09-03T04:44:26;5.60;;;3.25;;
47153;SDS011;32907;41.412;2.164;2022-09-03T04:46:53;7.10;;;3.25;;
47153;SDS011;32907;41.412;2.164;2022-09-03T04:49:21;6.28;;;3.42;;
47153;SDS011;32907;41.412;2.164;2022-09-03T04:51:51;5.18;;;2.90;;
47153;SDS011;32907;41.412;2.164;2022-09-03T04:54:18;5.00;;;2.83;;
47153;SDS011;32907;41.412;2.164;2022-09-03T04:56:46;9.25;;;3.60;;
47153;SDS011;32907;41.412;2.164;2022-09-03T04:59:14;6.40;;;3.10;;
47153;SDS011;32907;41.412;2.164;2022-09-03T05:01:42;7.30;;;3.53;;
47153;SDS011;32907;41.412;2.164;2022-09-03T05:04:10;8.52;;;5.00;;
47153;SDS011;32907;41.412;2.164;2022-09-03T05:06:38;8.77;;;5.15;;
47153;SDS011;32907;41.412;2.164;2022-09-03T05:09:05;7.03;;;4.05;;
47153;SDS011;32907;41.412;2.164;2022-09-03T05:11:33;8.38;;;4.10;;
47153;SDS011;32907;41.412;2.164;2022-09-03T05:14:01;6.25;;;3.33;;
47153;SDS011;32907;41.412;2.164;2022-09-03T05:16:32;8.93;;;3.53;;
47153;SDS011;32907;41.412;2.164;2022-09-03T05:19:00;7.93;;;3.58;;
47153;SDS011;32907;41.412;2.164;2022-09-03T05:21:28;7.85;;;3.08;;
47153;SDS011;32907;41.412;2.164;2022-09-03T05:23:58;6.13;;;3.65;;
47153;SDS011;32907;41.412;2.164;2022-09-03T05:26:30;5.85;;;3.55;;
47153;SDS011;32907;41.412;2.164;2022-09-03T05:31:35;9.48;;;3.25;;
47153;SDS011;32907;41.412;2.164;2022-09-03T05:34:05;11.20;;;3.65;;
47153;SDS011;32907;41.412;2.164;2022-09-03T05:36:35;10.38;;;3.58;;
47153;SDS011;32907;41.412;2.164;2022-09-03T05:39:04;6.63;;;2.88;;
47153;SDS011;32907;41.412;2.164;2022-09-03T05:41:33;9.13;;;4.78;;
47153;SDS011;32907;41.412;2.164;2022-09-03T05:44:01;10.07;;;5.35;;
47153;SDS011;32907;41.412;2.164;2022-09-03T05:46:31;7.03;;;4.38;;
47153;SDS011;32907;41.412;2.164;2022-09-03T05:49:02;6.15;;;3.72;;
47153;SDS011;32907;41.412;2.164;2022-09-03T05:51:34;6.10;;;3.22;;
47153;SDS011;32907;41.412;2.164;2022-09-03T05:54:03;7.30;;;3.40;;
47153;SDS011;32907;41.412;2.164;2022-09-03T05:56:31;6.70;;;2.80;;
47153;SDS011;32907;41.412;2.164;2022-09-03T05:59:03;8.30;;;3.05;;
47153;SDS011;32907;41.412;2.164;2022-09-03T06:01:39;7.80;;;3.60;;
47153;SDS011;32907;41.412;2.164;2022-09-03T06:04:18;9.60;;;3.55;;
47153;SDS011;32907;41.412;2.164;2022-09-03T06:06:46;8.63;;;2.92;;
47153;SDS011;32907;41.412;2.164;2022-09-03T06:09:16;7.75;;;2.95;;
47153;SDS011;32907;41.412;2.164;2022-09-03T06:11:49;6.00;;;3.28;;
47153;SDS011;32907;41.412;2.164;2022-09-03T06:14:19;4.47;;;3.08;;
47153;SDS011;32907;41.412;2.164;2022-09-03T06:16:47;5.63;;;2.92;;
47153;SDS011;32907;41.412;2.164;2022-09-03T06:19:16;7.88;;;3.40;;
47153;SDS011;32907;41.412;2.164;2022-09-03T06:21:44;8.27;;;3.75;;
47153;SDS011;32907;41.412;2.164;2022-09-03T06:24:19;7.03;;;4.82;;
47153;SDS011;32907;41.412;2.164;2022-09-03T06:26:57;8.40;;;6.30;;
47153;SDS011;32907;41.412;2.164;2022-09-03T06:29:25;7.90;;;5.20;;
47153;SDS011;32907;41.412;2.164;2022-09-03T06:31:54;7.15;;;4.82;;
47153;SDS011;32907;41.412;2.164;2022-09-03T06:34:23;7.72;;;5.20;;
47153;SDS011;32907;41.412;2.164;2022-09-03T06:36:53;9.57;;;5.35;;
47153;SDS011;32907;41.412;2.164;2022-09-03T06:39:21;6.65;;;3.80;;
47153;SDS011;32907;41.412;2.164;2022-09-03T06:41:49;9.27;;;3.42;;
47153;SDS011;32907;41.412;2.164;2022-09-03T06:44:25;4.07;;;2.70;;
47153;SDS011;32907;41.412;2.164;2022-09-03T06:46:53;8.05;;;4.15;;
47153;SDS011;32907;41.412;2.164;2022-09-03T06:49:21;5.95;;;3.95;;
47153;SDS011;32907;41.412;2.164;2022-09-03T06:51:50;7.70;;;4.10;;
47153;SDS011;32907;41.412;2.164;2022-09-03T06:54:18;8.27;;;4.32;;
47153;SDS011;32907;41.412;2.164;2022-09-03T06:56:46;8.40;;;4.35;;
47153;SDS011;32907;41.412;2.164;2022-09-03T06:59:14;13.75;;;4.63;;
47153;SDS011;32907;41.412;2.164;2022-09-03T07:01:42;7.32;;;4.32;;
47153;SDS011;32907;41.412;2.164;2022-09-03T07:04:13;9.60;;;4.38;;
47153;SDS011;32907;41.412;2.164;2022-09-03T07:06:46;7.78;;;4.28;;
47153;SDS011;32907;41.412;2.164;2022-09-03T07:09:14;8.15;;;4.10;;
47153;SDS011;32907;41.412;2.164;2022-09-03T07:11:44;9.20;;;4.40;;
47153;SDS011;32907;41.412;2.164;2022-09-03T07:14:15;9.77;;;4.00;;
47153;SDS011;32907;41.412;2.164;2022-09-03T07:16:45;5.82;;;3.58;;
47153;SDS011;32907;41.412;2.164;2022-09-03T07:19:15;6.35;;;4.00;;
47153;SDS011;32907;41.412;2.164;2022-09-03T07:21:44;8.10;;;4.20;;
47153;SDS011;32907;41.412;2.164;2022-09-03T07:24:17;6.38;;;3.65;;
47153;SDS011;32907;41.412;2.164;2022-09-03T07:26:46;9.85;;;3.90;;
47153;SDS011;32907;41.412;2.164;2022-09-03T07:29:16;9.18;;;4.00;;
47153;SDS011;32907;41.412;2.164;2022-09-03T07:31:47;8.20;;;4.25;;
47153;SDS011;32907;41.412;2.164;2022-09-03T07:34:20;5.43;;;3.65;;
47153;SDS011;32907;41.412;2.164;2022-09-03T07:36:51;6.18;;;3.85;;
47153;SDS011;32907;41.412;2.164;2022-09-03T07:39:20;10.50;;;4.03;;
47153;SDS011;32907;41.412;2.164;2022-09-03T07:41:48;8.80;;;3.75;;
47153;SDS011;32907;41.412;2.164;2022-09-03T07:44:16;7.57;;;4.22;;
47153;SDS011;32907;41.412;2.164;2022-09-03T07:46:46;6.85;;;3.70;;
47153;SDS011;32907;41.412;2.164;2022-09-03T07:49:18;9.48;;;4.35;;
47153;SDS011;32907;41.412;2.164;2022-09-03T07:51:47;9.02;;;3.72;;
47153;SDS011;32907;41.412;2.164;2022-09-03T07:54:18;5.97;;;3.50;;
47153;SDS011;32907;41.412;2.164;2022-09-03T07:56:47;8.95;;;3.63;;
47153;SDS011;32907;41.412;2.164;2022-09-03T07:59:15;5.40;;;3.40;;
47153;SDS011;32907;41.412;2.164;2022-09-03T08:01:43;6.50;;;4.18;;
47153;SDS011;32907;41.412;2.164;2022-09-03T08:04:11;7.10;;;3.95;;
47153;SDS011;32907;41.412;2.164;2022-09-03T08:06:38;7.15;;;3.45;;
47153;SDS011;32907;41.412;2.164;2022-09-03T08:09:07;8.52;;;4.13;;
47153;SDS011;32907;41.412;2.164;2022-09-03T08:11:38;7.55;;;3.53;;
47153;SDS011;32907;41.412;2.164;2022-09-03T08:14:09;7.75;;;3.95;;
47153;SDS011;32907;41.412;2.164;2022-09-03T08:16:39;8.30;;;3.40;;
47153;SDS011;32907;41.412;2.164;2022-09-03T08:19:09;6.90;;;3.40;;
47153;SDS011;32907;41.412;2.164;2022-09-03T08:21:38;7.88;;;3.70;;
47153;SDS011;32907;41.412;2.164;2022-09-03T08:24:08;6.57;;;3.30;;
47153;SDS011;32907;41.412;2.164;2022-09-03T08:26:41;9.25;;;3.72;;
47153;SDS011;32907;41.412;2.164;2022-09-03T08:29:13;7.60;;;3.47;;
47153;SDS011;32907;41.412;2.164;2022-09-03T08:31:41;5.82;;;3.13;;
47153;SDS011;32907;41.412;2.164;2022-09-03T08:34:10;6.25;;;3.10;;
47153;SDS011;32907;41.412;2.164;2022-09-03T08:36:40;7.55;;;3.10;;
47153;SDS011;32907;41.412;2.164;2022-09-03T08:39:09;9.55;;;3.83;;
47153;SDS011;32907;41.412;2.164;2022-09-03T08:49:33;11.23;;;3.38;;
47153;SDS011;32907;41.412;2.164;2022-09-03T08:52:30;6.80;;;3.03;;
47153;SDS011;32907;41.412;2.164;2022-09-03T09:13:55;9.13;;;4.15;;
47153;SDS011;32907;41.412;2.164;2022-09-03T09:16:41;7.35;;;3.63;;
47153;SDS011;32907;41.412;2.164;2022-09-03T09:21:53;6.43;;;2.88;;
47153;SDS011;32907;41.412;2.164;2022-09-03T09:24:44;7.78;;;3.08;;
47153;SDS011;32907;41.412;2.164;2022-09-03T09:27:15;9.65;;;3.65;;
47153;SDS011;32907;41.412;2.164;2022-09-03T09:29:45;7.25;;;3.60;;
47153;SDS011;32907;41.412;2.164;2022-09-03T09:32:17;8.90;;;3.92;;
47153;SDS011;32907;41.412;2.164;2022-09-03T09:34:47;9.27;;;4.20;;
47153;SDS011;32907;41.412;2.164;2022-09-03T09:37:18;8.80;;;3.97;;
47153;SDS011;32907;41.412;2.164;2022-09-03T09:39:54;11.05;;;4.15;;
47153;SDS011;32907;41.412;2.164;2022-09-03T09:42:24;9.55;;;4.70;;
47153;SDS011;32907;41.412;2.164;2022-09-03T09:44:53;9.02;;;4.65;;
47153;SDS011;32907;41.412;2.164;2022-09-03T09:47:23;6.50;;;3.85;;
47153;SDS011;32907;41.412;2.164;2022-09-03T09:49:56;9.73;;;3.83;;
47153;SDS011;32907;41.412;2.164;2022-09-03T09:52:27;11.95;;;3.92;;
47153;SDS011;32907;41.412;2.164;2022-09-03T09:55:12;7.43;;;3.40;;
47153;SDS011;32907;41.412;2.164;2022-09-03T09:57:44;7.20;;;3.45;;
47153;SDS011;32907;41.412;2.164;2022-09-03T10:00:13;8.52;;;4.90;;
47153;SDS011;32907;41.412;2.164;2022-09-03T10:02:47;8.57;;;4.82;;
47153;SDS011;32907;41.412;2.164;2022-09-03T10:07:54;12.15;;;5.13;;
47153;SDS011;32907;41.412;2.164;2022-09-03T10:10:26;10.23;;;4.35;;
47153;SDS011;32907;41.412;2.164;2022-09-03T10:13:38;9.75;;;4.72;;
47153;SDS011;32907;41.412;2.164;2022-09-03T10:16:18;9.93;;;3.88;;
47153;SDS011;32907;41.412;2.164;2022-09-03T10:19:00;11.80;;;4.25;;
47153;SDS011;32907;41.412;2.164;2022-09-03T10:21:48;8.40;;;4.00;;
47153;SDS011;32907;41.412;2.164;2022-09-03T10:27:25;11.65;;;5.10;;
47153;SDS011;32907;41.412;2.164;2022-09-03T10:29:58;15.95;;;5.53;;
47153;SDS011;32907;41.412;2.164;2022-09-03T10:35:12;9.35;;;3.88;;
47153;SDS011;32907;41.412;2.164;2022-09-03T10:46:24;6.88;;;3.58;;
47153;SDS011;32907;41.412;2.164;2022-09-03T10:48:59;5.05;;;2.95;;
47153;SDS011;32907;41.412;2.164;2022-09-03T10:51:32;14.90;;;10.40;;
47153;SDS011;32907;41.412;2.164;2022-09-03T10:54:48;15.60;;;11.60;;
47153;SDS011;32907;41.412;2.164;2022-09-03T11:00:26;7.55;;;4.30;;
47153;SDS011;32907;41.412;2.164;2022-09-03T11:08:20;5.85;;;3.30;;
47153;SDS011;32907;41.412;2.164;2022-09-03T11:10:54;11.05;;;5.30;;
47153;SDS011;32907;41.412;2.164;2022-09-03T11:13:30;9.48;;;5.88;;
47153;SDS011;32907;41.412;2.164;2022-09-03T11:16:04;12.70;;;6.25;;
47153;SDS011;32907;41.412;2.164;2022-09-03T11:21:15;10.40;;;4.53;;
47153;SDS011;32907;41.412;2.164;2022-09-03T11:23:48;11.77;;;5.05;;
47153;SDS011;32907;41.412;2.164;2022-09-03T11:26:22;13.05;;;6.13;;
47153;SDS011;32907;41.412;2.164;2022-09-03T11:34:13;10.65;;;5.70;;
47153;SDS011;32907;41.412;2.164;2022-09-03T11:36:49;12.20;;;6.63;;
47153;SDS011;32907;41.412;2.164;2022-09-03T11:41:58;10.18;;;5.00;;
47153;SDS011;32907;41.412;2.164;2022-09-03T11:44:36;5.55;;;3.70;;
47153;SDS011;32907;41.412;2.164;2022-09-03T11:47:22;10.20;;;4.55;;
47153;SDS011;32907;41.412;2.164;2022-09-03T11:50:06;6.50;;;4.25;;
47153;SDS011;32907;41.412;2.164;2022-09-03T11:52:48;7.22;;;4.15;;
47153;SDS011;32907;41.412;2.164;2022-09-03T11:55:44;7.45;;;4.03;;
47153;SDS011;32907;41.412;2.164;2022-09-03T11:58:30;8.60;;;4.40;;
47153;SDS011;32907;41.412;2.164;2022-09-03T12:01:01;7.57;;;4.40;;
47153;SDS011;32907;41.412;2.164;2022-09-03T12:04:14;7.93;;;4.53;;
47153;SDS011;32907;41.412;2.164;2022-09-03T12:20:12;5.22;;;2.97;;
47153;SDS011;32907;41.412;2.164;2022-09-03T12:22:41;6.50;;;3.10;;
47153;SDS011;32907;41.412;2.164;2022-09-03T12:25:13;6.38;;;3.33;;
47153;SDS011;32907;41.412;2.164;2022-09-03T12:27:43;9.95;;;3.63;;
47153;SDS011;32907;41.412;2.164;2022-09-03T12:30:17;6.00;;;2.88;;
47153;SDS011;32907;41.412;2.164;2022-09-03T12:32:47;7.18;;;2.97;;
47153;SDS011;32907;41.412;2.164;2022-09-03T12:35:16;7.40;;;3.00;;
47153;SDS011;32907;41.412;2.164;2022-09-03T12:38:06;7.03;;;3.03;;
47153;SDS011;32907;41.412;2.164;2022-09-03T12:40:41;7.88;;;2.83;;
47153;SDS011;32907;41.412;2.164;2022-09-03T12:43:30;9.65;;;3.15;;
47153;SDS011;32907;41.412;2.164;2022-09-03T12:46:12;10.98;;;4.20;;
47153;SDS011;32907;41.412;2.164;2022-09-03T12:48:58;9.82;;;4.00;;
47153;SDS011;32907;41.412;2.164;2022-09-03T12:51:56;8.95;;;4.32;;
47153;SDS011;32907;41.412;2.164;2022-09-03T12:54:36;11.57;;;4.57;;
47153;SDS011;32907;41.412;2.164;2022-09-03T12:57:28;12.10;;;4.72;;
47153;SDS011;32907;41.412;2.164;2022-09-03T13:00:04;11.90;;;3.95;;
47153;SDS011;32907;41.412;2.164;2022-09-03T13:02:45;8.20;;;3.50;;
47153;SDS011;32907;41.412;2.164;2022-09-03T13:05:48;9.35;;;3.47;;
47153;SDS011;32907;41.412;2.164;2022-09-03T13:08:22;11.00;;;3.53;;
47153;SDS011;32907;41.412;2.164;2022-09-03T13:10:54;8.15;;;3.88;;
47153;SDS011;32907;41.412;2.164;2022-09-03T13:13:26;10.30;;;4.00;;
47153;SDS011;32907;41.412;2.164;2022-09-03T13:16:03;8.57;;;3.85;;
47153;SDS011;32907;41.412;2.164;2022-09-03T13:35:07;9.13;;;3.05;;
47153;SDS011;32907;41.412;2.164;2022-09-03T13:37:43;11.95;;;2.80;;
47153;SDS011;32907;41.412;2.164;2022-09-03T13:42:50;7.68;;;3.67;;
47153;SDS011;32907;41.412;2.164;2022-09-03T13:45:34;4.28;;;2.80;;
47153;SDS011;32907;41.412;2.164;2022-09-03T13:48:11;8.93;;;3.35;;
47153;SDS011;32907;41.412;2.164;2022-09-03T13:51:08;7.47;;;2.50;;
47153;SDS011;32907;41.412;2.164;2022-09-03T13:56:32;7.07;;;2.55;;
47153;SDS011;32907;41.412;2.164;2022-09-03T14:07:24;12.65;;;5.50;;
47153;SDS011;32907;41.412;2.164;2022-09-03T14:10:18;10.13;;;5.28;;
47153;SDS011;32907;41.412;2.164;2022-09-03T14:15:57;8.18;;;3.85;;
47153;SDS011;32907;41.412;2.164;2022-09-03T14:19:03;8.63;;;3.37;;
47153;SDS011;32907;41.412;2.164;2022-09-03T14:21:49;8.23;;;3.00;;
47153;SDS011;32907;41.412;2.164;2022-09-03T14:24:49;7.68;;;2.67;;
47153;SDS011;32907;41.412;2.164;2022-09-03T14:27:26;8.60;;;2.90;;
47153;SDS011;32907;41.412;2.164;2022-09-03T14:29:59;9.73;;;2.67;;
47153;SDS011;32907;41.412;2.164;2022-09-03T14:52:31;7.60;;;2.28;;
47153;SDS011;32907;41.412;2.164;2022-09-03T15:01:11;6.05;;;1.67;;
47153;SDS011;32907;41.412;2.164;2022-09-03T15:09:45;8.05;;;3.13;;
47153;SDS011;32907;41.412;2.164;2022-09-03T15:12:36;10.05;;;2.85;;
47153;SDS011;32907;41.412;2.164;2022-09-03T15:15:17;9.82;;;4.68;;
47153;SDS011;32907;41.412;2.164;2022-09-03T15:18:03;10.27;;;4.15;;
47153;SDS011;32907;41.412;2.164;2022-09-03T15:24:41;6.15;;;3.13;;
47153;SDS011;32907;41.412;2.164;2022-09-03T15:27:06;8.45;;;2.97;;
47153;SDS011;32907;41.412;2.164;2022-09-03T15:30:08;7.70;;;2.80;;
47153;SDS011;32907;41.412;2.164;2022-09-03T15:44:34;14.30;;;3.08;;
47153;SDS011;32907;41.412;2.164;2022-09-03T15:47:12;12.05;;;3.40;;
47153;SDS011;32907;41.412;2.164;2022-09-03T15:59:24;8.77;;;2.65;;
47153;SDS011;32907;41.412;2.164;2022-09-03T16:02:10;7.28;;;2.55;;
47153;SDS011;32907;41.412;2.164;2022-09-03T16:07:52;7.18;;;2.80;;
47153;SDS011;32907;41.412;2.164;2022-09-03T16:10:54;9.13;;;3.35;;
47153;SDS011;32907;41.412;2.164;2022-09-03T16:19:40;5.93;;;2.42;;
47153;SDS011;32907;41.412;2.164;2022-09-03T16:22:25;6.35;;;1.60;;
47153;SDS011;32907;41.412;2.164;2022-09-03T16:25:03;3.47;;;1.43;;
47153;SDS011;32907;41.412;2.164;2022-09-03T16:30:20;5.50;;;2.08;;
47153;SDS011;32907;41.412;2.164;2022-09-03T16:41:11;8.95;;;2.58;;
47153;SDS011;32907;41.412;2.164;2022-09-03T16:44:34;13.73;;;3.50;;
47153;SDS011;32907;41.412;2.164;2022-09-03T16:47:01;7.28;;;3.10;;
47153;SDS011;32907;41.412;2.164;2022-09-03T17:09:26;9.18;;;2.40;;
47153;SDS011;32907;41.412;2.164;2022-09-03T17:15:06;7.32;;;2.17;;
47153;SDS011;32907;41.412;2.164;2022-09-03T17:29:16;7.40;;;2.85;;
47153;SDS011;32907;41.412;2.164;2022-09-03T17:45:19;9.27;;;4.05;;
47153;SDS011;32907;41.412;2.164;2022-09-03T17:48:15;9.60;;;4.18;;
47153;SDS011;32907;41.412;2.164;2022-09-03T17:50:54;10.35;;;4.10;;
47153;SDS011;32907;41.412;2.164;2022-09-03T17:53:44;13.10;;;4.55;;
47153;SDS011;32907;41.412;2.164;2022-09-03T17:58:54;11.48;;;4.90;;
47153;SDS011;32907;41.412;2.164;2022-09-03T18:01:47;8.52;;;4.35;;
47153;SDS011;32907;41.412;2.164;2022-09-03T18:07:17;10.68;;;3.30;;
47153;SDS011;32907;41.412;2.164;2022-09-03T18:10:02;10.90;;;3.03;;
47153;SDS011;32907;41.412;2.164;2022-09-03T18:12:40;10.93;;;3.28;;
47153;SDS011;32907;41.412;2.164;2022-09-03T18:15:36;6.43;;;2.47;;
47153;SDS011;32907;41.412;2.164;2022-09-03T18:20:50;7.60;;;2.60;;
47153;SDS011;32907;41.412;2.164;2022-09-03T18:26:59;9.45;;;2.80;;
47153;SDS011;32907;41.412;2.164;2022-09-03T18:29:53;7.03;;;3.00;;
47153;SDS011;32907;41.412;2.164;2022-09-03T18:32:45;9.60;;;4.00;;
47153;SDS011;32907;41.412;2.164;2022-09-03T18:35:33;10.13;;;3.85;;
47153;SDS011;32907;41.412;2.164;2022-09-03T18:38:28;9.57;;;3.50;;
47153;SDS011;32907;41.412;2.164;2022-09-03T18:44:55;8.90;;;2.70;;
47153;SDS011;32907;41.412;2.164;2022-09-03T18:54:54;13.23;;;4.30;;
47153;SDS011;32907;41.412;2.164;2022-09-03T19:00:51;12.40;;;4.15;;
47153;SDS011;32907;41.412;2.164;2022-09-03T19:09:55;10.48;;;3.10;;
47153;SDS011;32907;41.412;2.164;2022-09-03T19:15:44;10.00;;;2.58;;
47153;SDS011;32907;41.412;2.164;2022-09-03T19:21:53;7.05;;;2.08;;
47153;SDS011;32907;41.412;2.164;2022-09-03T19:24:52;5.35;;;1.73;;
47153;SDS011;32907;41.412;2.164;2022-09-03T19:34:36;7.63;;;2.90;;
47153;SDS011;32907;41.412;2.164;2022-09-03T19:37:30;9.02;;;2.83;;
47153;SDS011;32907;41.412;2.164;2022-09-03T19:43:18;10.95;;;3.53;;
47153;SDS011;32907;41.412;2.164;2022-09-03T19:52:37;10.20;;;2.72;;
47153;SDS011;32907;41.412;2.164;2022-09-03T19:56:29;7.95;;;2.50;;
47153;SDS011;32907;41.412;2.164;2022-09-03T19:59:04;6.63;;;2.58;;
47153;SDS011;32907;41.412;2.164;2022-09-03T20:01:56;6.10;;;2.47;;
47153;SDS011;32907;41.412;2.164;2022-09-03T20:07:32;7.43;;;3.00;;
47153;SDS011;32907;41.412;2.164;2022-09-03T20:10:20;6.07;;;2.33;;
47153;SDS011;32907;41.412;2.164;2022-09-03T20:12:59;7.15;;;2.80;;
47153;SDS011;32907;41.412;2.164;2022-09-03T20:18:24;9.20;;;2.70;;
47153;SDS011;32907;41.412;2.164;2022-09-03T20:26:51;7.18;;;2.63;;
47153;SDS011;32907;41.412;2.164;2022-09-03T20:29:50;7.03;;;2.75;;
47153;SDS011;32907;41.412;2.164;2022-09-03T20:52:44;7.53;;;2.97;;
47153;SDS011;32907;41.412;2.164;2022-09-03T20:55:32;7.30;;;2.70;;
47153;SDS011;32907;41.412;2.164;2022-09-03T20:58:18;10.80;;;3.53;;
47153;SDS011;32907;41.412;2.164;2022-09-03T21:02:17;6.40;;;2.47;;
47153;SDS011;32907;41.412;2.164;2022-09-03T21:07:21;10.20;;;3.40;;
47153;SDS011;32907;41.412;2.164;2022-09-03T21:10:12;9.32;;;2.63;;
47153;SDS011;32907;41.412;2.164;2022-09-03T21:18:09;8.80;;;3.00;;
47153;SDS011;32907;41.412;2.164;2022-09-03T21:23:57;7.10;;;2.75;;
47153;SDS011;32907;41.412;2.164;2022-09-03T21:26:33;6.80;;;2.63;;
47153;SDS011;32907;41.412;2.164;2022-09-03T21:29:10;6.00;;;2.53;;
47153;SDS011;32907;41.412;2.164;2022-09-03T21:34:18;9.57;;;3.40;;
47153;SDS011;32907;41.412;2.164;2022-09-03T21:36:51;9.68;;;3.47;;
47153;SDS011;32907;41.412;2.164;2022-09-03T21:39:25;10.38;;;3.75;;
47153;SDS011;32907;41.412;2.164;2022-09-03T21:47:16;8.75;;;3.70;;
47153;SDS011;32907;41.412;2.164;2022-09-03T21:52:14;8.95;;;2.75;;
47153;SDS011;32907;41.412;2.164;2022-09-03T21:54:46;10.40;;;3.22;;
47153;SDS011;32907;41.412;2.164;2022-09-03T21:57:31;10.73;;;3.58;;
47153;SDS011;32907;41.412;2.164;2022-09-03T22:02:38;6.75;;;3.03;;
47153;SDS011;32907;41.412;2.164;2022-09-03T22:05:07;8.02;;;2.88;;
47153;SDS011;32907;41.412;2.164;2022-09-03T22:07:44;12.52;;;3.60;;
47153;SDS011;32907;41.412;2.164;2022-09-03T22:13:20;8.68;;;3.45;;
47153;SDS011;32907;41.412;2.164;2022-09-03T22:16:08;8.05;;;3.53;;
47153;SDS011;32907;41.412;2.164;2022-09-03T22:18:57;9.63;;;3.80;;
47153;SDS011;32907;41.412;2.164;2022-09-03T22:21:28;9.15;;;4.70;;